Flight Track Log - Related Links

Times and Time Zones

All times are in EST time to prevent confusion due to time zone crossing. See the EJA951 flight status page for this flight to view local times or setup timezone preferences in your user account.

Time Position Orientation Groundspeed Altitude Reporting Facility
EST Latitude Longitude Course Direction KTS MPH feet Rate Location/Type
Tue 09:14:34 AM 35.2325 -80.9367 13° North 170 196 2,100  Level Atlanta Center
Tue 09:14:52 AM 35.2431 -80.9336 13° North 176 203 2,700 3,600 Climbing Atlanta Center
Tue 09:15:59 AM 35.2678 -81.0039 293° West 246 283 7,200 3,818 Climbing Atlanta Center
Tue 09:16:53 AM 35.2508 -81.0861 256° West 276 318 10,400 3,343 Climbing Atlanta Center
Tue 09:17:09 AM 35.2453 -81.1142 256° West 294 338 11,100 2,842 Climbing Atlanta Center
Tue 09:18:09 AM 35.2228 -81.2192 255° West 344 396 14,000 1,900 Climbing Atlanta Center
Tue 09:19:09 AM 35.2003 -81.3369 257° West 344 396 14,900 1,300 Climbing Atlanta Center
Tue 09:20:09 AM 35.1758 -81.4572 256° West 356 410 16,600 1,450 Climbing Atlanta Center
Tue 09:21:09 AM 35.1489 -81.5647 253° West 361 415 17,800 1,100 Climbing Atlanta Center
Tue 09:22:09 AM 35.1178 -81.6850 252° West 370 426 18,800 1,300 Climbing Atlanta Center
Tue 09:23:09 AM 35.0889 -81.8103 254° West 375 432 20,400 1,500 Climbing Atlanta Center
Tue 09:24:09 AM 35.0553 -81.9278 251° West 375 432 21,800 800 Climbing Atlanta Center
Tue 09:25:09 AM 35.0242 -82.0528 253° West 382 440 22,000 100 Climbing Atlanta Center
Tue 09:26:09 AM 34.9928 -82.1803 253° West 392 451 22,000  Level Atlanta Center
Tue 09:27:09 AM 34.9531 -82.3206 251° West 392 451 22,000  Level Atlanta Center
Tue 09:28:09 AM 34.9214 -82.4531 254° West 397 457 22,000  Level Atlanta Center
Tue 09:29:09 AM 34.8856 -82.5828 251° West 402 463 22,000  Level Atlanta Center
Tue 09:30:09 AM 34.8514 -82.7125 252° West 407 468 22,000  Level Atlanta Center
Tue 09:31:09 AM 34.8172 -82.8444 253° West 407 468 22,000 -700 Level Atlanta Center
Tue 09:32:09 AM 34.7789 -82.9614 248° West 407 468 20,600 -1,450 Descending Atlanta Center
Tue 09:33:09 AM 34.7444 -83.1033 254° West 428 493 19,100 -1,250 Descending Atlanta Center
Tue 09:34:09 AM 34.7100 -83.2428 253° West 433 498 18,100 -1,250 Descending Atlanta Center
Tue 09:35:09 AM 34.6689 -83.3744 249° West 428 493 16,600 -1,550 Descending Atlanta Center
Tue 09:36:09 AM 34.6197 -83.5114 246° West 417 480 15,000 -1,550 Descending Atlanta Center
Tue 09:37:09 AM 34.5533 -83.6253 235° Southwest 412 474 13,500 -1,500 Descending Atlanta Center
Tue 09:38:09 AM 34.4931 -83.7414 238° Southwest 417 480 12,000 -1,250 Descending Atlanta Center
Tue 09:39:09 AM 34.4369 -83.8500 238° Southwest 402 463 11,000 -900 Descending Atlanta Center
Tue 09:40:09 AM 34.3850 -83.9431 236° Southwest 371 427 10,200 -1,150 Descending Atlanta Center
Tue 09:41:09 AM 34.3411 -84.0261 237° Southwest 313 360 8,700 -1,100 Descending Atlanta Center
Tue 09:42:09 AM 34.2889 -84.0867 224° Southwest 279 321 8,000 -800 Descending Atlanta Center
Tue 09:43:09 AM 34.2200 -84.1092 195° South 252 290 7,100 -1,000 Descending Atlanta Center
Tue 09:44:09 AM 34.1511 -84.1317 195° South 258 297 6,000 -650 Descending Atlanta Center
Tue 09:45:09 AM 34.0906 -84.1492 193° South 258 297 5,800 -500 Descending Atlanta Center
Tue 09:46:09 AM 34.0322 -84.1667 194° South 243 280 5,000 -900 Descending Atlanta Center
Tue 09:47:09 AM 33.9778 -84.1842 195° South 215 247 4,000 -650 Descending Atlanta Center
Tue 09:48:09 AM 33.9256 -84.2017 196° South 207 238 3,700 -500 Descending Atlanta Center
Tue 09:49:09 AM 33.8692 -84.2339 205° Southwest 218 251 3,000 -650 Descending Atlanta Center
Tue 09:50:09 AM 33.8169 -84.2714 211° Southwest 213 245 2,400 -627 Descending Atlanta Center
Tue 09:51:23 AM 33.8500 -84.3167 311° West 152 175 1,600 -649 Descending Atlanta TRACON
Tue 09:53:00 AM 33.8667 -84.3000 40° Northeast  Level FlightAware Approximate
Tue 10:00:00 AM 33.8756 -84.3020 40° Northeast  Level Estimated

Login

Don't have an account? Register now (free) for customized features, flight alerts, and more!